Time;durP1;ratioP1;P1;durP2;ratioP2;P2;SDS_P1;SDS_P2;PMS_P1;PMS_P2;Temp;Humidity;BMP_temperature;BMP_pressure;BME280_temperature;BME280_humidity;BME280_pressure;Samples;Min_cycle;Max_cycle;Signal;HPM_P1;HPM_P2
2023/05/12 00:01:06;;;;;;;7.28;4.15;;;10.80;99.90;;;;;;5092761;28;20040;-63
2023/05/12 00:03:32;;;;;;;6.85;3.60;;;10.90;99.90;;;;;;5107957;28;20036;-63
2023/05/12 00:06:02;;;;;;;7.35;3.50;;;10.90;99.90;;;;;;5091059;28;20051;-63
2023/05/12 00:08:28;;;;;;;7.80;3.58;;;10.80;99.90;;;;;;5107999;28;20036;-63
2023/05/12 00:10:53;;;;;;;7.22;3.55;;;10.80;99.90;;;;;;5118796;27;20047;-63
2023/05/12 00:13:22;;;;;;;7.45;3.65;;;10.80;99.90;;;;;;5124277;27;20036;-63
2023/05/12 00:15:48;;;;;;;8.27;4.60;;;10.80;99.90;;;;;;5125415;27;20046;-63
2023/05/12 00:18:14;;;;;;;9.43;5.25;;;10.80;99.90;;;;;;5125131;27;20039;-63
2023/05/12 00:20:39;;;;;;;8.65;4.43;;;10.80;99.90;;;;;;5097978;28;20047;-63
2023/05/12 00:23:05;;;;;;;11.20;5.47;;;10.90;99.90;;;;;;5112776;28;20028;-63
2023/05/12 00:25:31;;;;;;;9.57;5.30;;;10.90;99.90;;;;;;5112390;28;20031;-63
2023/05/12 00:27:56;;;;;;;9.98;6.38;;;10.80;99.90;;;;;;5110846;28;20388;-63
2023/05/12 00:30:22;;;;;;;13.07;6.68;;;10.90;99.90;;;;;;5106343;28;20092;-63
2023/05/12 00:32:48;;;;;;;13.93;7.47;;;10.90;99.90;;;;;;5091373;28;20051;-64
2023/05/12 00:35:14;;;;;;;12.55;7.25;;;10.90;99.90;;;;;;5090386;28;20054;-64
2023/05/12 00:37:41;;;;;;;14.32;8.18;;;10.90;99.90;;;;;;5074023;28;20147;-64
2023/05/12 00:40:08;;;;;;;12.82;8.55;;;10.90;99.90;;;;;;5091495;28;20083;-64
2023/05/12 00:42:34;;;;;;;13.93;8.50;;;10.90;99.90;;;;;;5089496;28;20484;-64
2023/05/12 00:45:00;;;;;;;13.40;8.23;;;10.90;99.90;;;;;;5091017;28;20040;-64
2023/05/12 00:47:26;;;;;;;14.18;7.95;;;10.90;99.90;;;;;;5090531;28;20062;-64
2023/05/12 00:49:52;;;;;;;16.00;8.57;;;10.90;99.90;;;;;;5090129;28;20038;-64
2023/05/12 00:52:18;;;;;;;16.27;8.57;;;10.90;99.90;;;;;;5091909;28;20036;-64
2023/05/12 00:54:45;;;;;;;18.30;9.95;;;10.90;99.90;;;;;;5091302;28;20164;-64
2023/05/12 00:57:11;;;;;;;14.90;9.00;;;10.90;99.90;;;;;;5091411;28;20071;-64
2023/05/12 00:59:37;;;;;;;15.00;9.00;;;11.00;99.90;;;;;;5093909;28;20071;-65
2023/05/12 01:02:03;;;;;;;17.30;9.40;;;10.90;99.90;;;;;;5110486;28;20121;-65
2023/05/12 01:04:29;;;;;;;19.20;10.57;;;10.90;99.90;;;;;;5114588;28;20048;-65
2023/05/12 01:07:01;;;;;;;18.25;9.73;;;11.00;99.90;;;;;;5116805;28;20104;-65
2023/05/12 01:09:27;;;;;;;16.42;10.73;;;10.90;99.90;;;;;;5096979;28;20031;-65
2023/05/12 01:11:53;;;;;;;18.38;11.15;;;10.90;99.90;;;;;;5116263;28;20492;-65
2023/05/12 01:14:18;;;;;;;21.85;10.90;;;10.90;99.90;;;;;;5116123;28;20431;-65
2023/05/12 01:16:52;;;;;;;20.77;10.93;;;11.00;99.90;;;;;;5097228;28;20044;-65
2023/05/12 01:19:48;;;;;;;22.10;12.23;;;11.00;99.90;;;;;;5097925;28;20078;-65
2023/05/12 01:22:15;;;;;;;20.77;11.65;;;11.00;99.90;;;;;;5114296;28;20040;-65
2023/05/12 01:24:56;;;;;;;25.85;12.65;;;10.90;99.90;;;;;;5113809;28;20043;-65
2023/05/12 01:27:27;;;;;;;24.30;13.77;;;10.90;99.90;;;;;;5115609;28;20482;-65
2023/05/12 01:29:55;;;;;;;23.80;14.63;;;11.00;99.90;;;;;;5114049;28;20569;-65
2023/05/12 01:32:21;;;;;;;27.52;15.52;;;10.90;99.90;;;;;;5097199;28;20035;-65
2023/05/12 01:34:47;;;;;;;27.35;15.80;;;10.90;99.90;;;;;;5116163;28;20075;-65
2023/05/12 01:37:13;;;;;;;30.83;14.75;;;10.90;99.90;;;;;;5096932;28;20180;-65
2023/05/12 01:39:38;;;;;;;30.08;14.98;;;10.90;99.90;;;;;;5114566;28;20476;-65
2023/05/12 01:42:04;;;;;;;33.83;17.60;;;11.00;99.90;;;;;;5114351;28;20512;-65
2023/05/12 01:44:30;;;;;;;23.92;13.85;;;11.00;99.90;;;;;;5113274;28;20071;-65
2023/05/12 01:46:56;;;;;;;23.65;15.25;;;11.00;99.90;;;;;;5097347;28;20036;-65
2023/05/12 01:49:22;;;;;;;29.60;14.77;;;11.00;99.90;;;;;;5115277;28;20093;-65
2023/05/12 01:51:48;;;;;;;24.75;12.55;;;11.00;99.90;;;;;;5114925;28;20506;-65
2023/05/12 01:54:14;;;;;;;22.05;11.73;;;11.00;99.90;;;;;;5113994;28;20490;-65
2023/05/12 01:56:40;;;;;;;25.80;12.80;;;11.00;99.90;;;;;;5114160;28;20043;-65
2023/05/12 01:59:06;;;;;;;23.88;12.43;;;11.00;99.90;;;;;;5113485;28;20492;-65
2023/05/12 02:01:32;;;;;;;19.83;12.35;;;11.00;99.90;;;;;;5112498;28;20184;-65
2023/05/12 02:03:58;;;;;;;22.77;12.18;;;11.10;99.90;;;;;;5115244;28;20487;-65
2023/05/12 02:06:25;;;;;;;20.00;11.90;;;11.00;99.90;;;;;;5114128;28;20396;-65
2023/05/12 02:08:51;;;;;;;22.90;11.52;;;11.10;99.90;;;;;;5114091;28;20484;-65
2023/05/12 02:30:22;;;;;;;27.80;13.77;;;11.10;99.90;;;;;;5115000;28;20068;-65
2023/05/12 02:32:48;;;;;;;29.67;13.35;;;11.10;99.90;;;;;;5096729;28;20039;-65
2023/05/12 02:35:13;;;;;;;28.10;15.32;;;11.20;99.90;;;;;;5112702;28;20044;-65
2023/05/12 02:37:39;;;;;;;24.42;13.48;;;11.20;99.90;;;;;;5114433;28;20044;-65
2023/05/12 02:40:06;;;;;;;29.90;17.00;;;11.20;99.90;;;;;;5114578;28;20046;-65
2023/05/12 02:42:34;;;;;;;28.60;16.27;;;11.20;99.90;;;;;;5113661;28;20140;-65
2023/05/12 02:45:00;;;;;;;30.80;15.43;;;11.30;99.90;;;;;;5113277;28;20484;-65
2023/05/12 02:47:30;;;;;;;29.98;16.70;;;11.30;99.90;;;;;;5112295;28;20051;-65
2023/05/12 02:49:55;;;;;;;26.83;16.20;;;11.30;99.90;;;;;;5113580;28;20391;-65
2023/05/12 02:52:21;;;;;;;34.13;17.48;;;11.30;99.90;;;;;;5113668;28;20040;-65
2023/05/12 02:54:47;;;;;;;34.22;19.45;;;11.40;99.90;;;;;;5095648;28;20043;-65
2023/05/12 02:57:12;;;;;;;29.73;16.35;;;11.40;99.90;;;;;;5114252;28;20116;-65
2023/05/12 02:59:38;;;;;;;32.17;18.75;;;11.40;99.90;;;;;;5095722;28;20100;-65
2023/05/12 03:02:04;;;;;;;32.10;18.27;;;11.40;99.90;;;;;;5112292;28;20455;-65
2023/05/12 03:04:31;;;;;;;34.20;17.73;;;11.50;99.90;;;;;;5113644;28;20035;-65
2023/05/12 03:06:57;;;;;;;42.85;20.35;;;11.40;99.90;;;;;;5112902;28;20388;-65
2023/05/12 03:09:23;;;;;;;31.63;18.67;;;11.50;99.90;;;;;;5094626;28;20035;-65
2023/05/12 03:11:48;;;;;;;31.23;18.25;;;11.50;99.90;;;;;;5113322;28;20058;-65
2023/05/12 03:14:14;;;;;;;40.83;20.45;;;11.50;99.90;;;;;;5113648;28;20487;-65
2023/05/12 03:16:40;;;;;;;40.65;22.05;;;11.50;99.90;;;;;;5095013;28;20545;-65
2023/05/12 03:19:05;;;;;;;34.55;20.10;;;11.50;99.90;;;;;;5113998;28;20044;-65
2023/05/12 03:21:31;;;;;;;38.30;21.08;;;11.50;99.90;;;;;;5111902;28;20035;-65
2023/05/12 03:23:56;;;;;;;39.45;23.02;;;11.50;99.90;;;;;;5111960;28;20040;-65
2023/05/12 03:26:22;;;;;;;38.05;20.42;;;11.60;99.90;;;;;;5110872;28;20067;-65
2023/05/12 03:28:48;;;;;;;42.30;22.23;;;11.60;99.90;;;;;;5113749;28;20063;-65
2023/05/12 03:31:13;;;;;;;37.17;21.13;;;11.60;99.90;;;;;;5111999;28;20039;-66
2023/05/12 03:33:39;;;;;;;44.70;23.35;;;11.60;99.90;;;;;;5111999;28;20100;-66
2023/05/12 03:36:05;;;;;;;39.33;21.15;;;11.60;99.90;;;;;;5113494;28;20031;-65
2023/05/12 03:38:30;;;;;;;46.42;25.67;;;11.60;99.90;;;;;;5111148;28;20036;-65
2023/05/12 03:41:05;;;;;;;46.05;25.33;;;11.70;99.90;;;;;;5111921;28;20452;-65
2023/05/12 03:43:31;;;;;;;50.78;24.92;;;11.70;99.90;;;;;;5111279;28;20043;-66
2023/05/12 03:45:57;;;;;;;47.50;26.00;;;11.70;99.90;;;;;;5113245;27;20031;-66
2023/05/12 03:48:23;;;;;;;49.90;27.95;;;11.70;99.90;;;;;;5111597;28;20047;-66
2023/05/12 03:50:48;;;;;;;49.15;26.85;;;11.70;99.90;;;;;;5094604;28;20092;-65
2023/05/12 03:53:14;;;;;;;47.00;24.77;;;11.70;99.90;;;;;;5112127;28;20031;-65
2023/05/12 03:55:40;;;;;;;56.67;28.98;;;11.70;99.90;;;;;;5094593;28;20050;-66
2023/05/12 03:58:06;;;;;;;57.90;27.85;;;11.70;99.90;;;;;;5112852;28;20035;-65
2023/05/12 04:00:32;;;;;;;45.25;25.30;;;11.80;99.90;;;;;;5112409;28;20092;-66
2023/05/12 04:02:58;;;;;;;52.25;25.45;;;11.70;99.90;;;;;;5111413;28;20094;-65
2023/05/12 04:05:24;;;;;;;53.38;27.08;;;11.70;99.90;;;;;;5112185;28;20504;-65
2023/05/12 04:07:50;;;;;;;49.97;25.73;;;11.80;99.90;;;;;;5095236;28;20036;-66
2023/05/12 04:10:16;;;;;;;49.35;26.40;;;11.70;99.90;;;;;;5094350;28;20499;-66
2023/05/12 04:12:41;;;;;;;51.70;27.42;;;11.70;99.90;;;;;;5090991;28;20522;-65
2023/05/12 04:15:07;;;;;;;54.92;28.15;;;11.70;99.90;;;;;;5091477;28;20048;-65
2023/05/12 04:17:33;;;;;;;48.83;25.52;;;11.70;99.90;;;;;;5090393;28;20040;-65
2023/05/12 04:19:59;;;;;;;46.33;26.67;;;11.70;99.90;;;;;;5073934;28;20436;-65
2023/05/12 04:22:25;;;;;;;47.63;25.17;;;11.70;99.90;;;;;;5091908;28;20032;-65
2023/05/12 04:24:51;;;;;;;50.85;26.00;;;11.70;99.90;;;;;;5091065;28;20083;-65
2023/05/12 04:27:16;;;;;;;55.95;26.67;;;11.70;99.90;;;;;;5091709;28;20076;-65
2023/05/12 04:29:42;;;;;;;60.22;25.02;;;11.70;99.90;;;;;;5091736;28;20097;-65
2023/05/12 04:32:08;;;;;;;48.78;26.60;;;11.70;99.90;;;;;;5091498;28;20040;-66
2023/05/12 04:34:34;;;;;;;54.70;26.85;;;11.70;99.90;;;;;;5091689;28;20044;-66
2023/05/12 04:37:00;;;;;;;48.30;27.10;;;11.70;99.90;;;;;;5090697;28;20550;-65
2023/05/12 04:39:26;;;;;;;57.35;29.23;;;11.70;99.90;;;;;;5091829;28;20044;-65
2023/05/12 04:41:52;;;;;;;60.53;28.63;;;11.70;99.90;;;;;;5090166;28;20050;-66
2023/05/12 04:44:18;;;;;;;52.35;27.25;;;11.80;99.90;;;;;;5090807;28;20032;-66
2023/05/12 04:46:43;;;;;;;50.83;28.50;;;11.80;99.90;;;;;;5089963;28;20378;-65
2023/05/12 04:49:10;;;;;;;52.13;27.60;;;11.90;99.90;;;;;;5091759;28;20047;-66
2023/05/12 04:51:41;;;;;;;44.63;24.23;;;11.80;99.90;;;;;;5090609;28;20044;-66
2023/05/12 04:54:09;;;;;;;63.03;32.08;;;11.90;99.90;;;;;;5091970;28;20047;-65
2023/05/12 04:56:35;;;;;;;58.58;26.27;;;11.90;99.90;;;;;;5091968;28;20036;-65
2023/05/12 04:59:00;;;;;;;50.20;27.17;;;12.00;99.90;;;;;;5073665;28;20032;-65
2023/05/12 05:01:26;;;;;;;54.72;27.27;;;12.00;99.90;;;;;;5090860;28;20127;-65
2023/05/12 05:03:52;;;;;;;48.22;25.85;;;12.00;99.90;;;;;;5092218;28;20045;-65
2023/05/12 05:06:17;;;;;;;56.20;28.25;;;12.00;99.90;;;;;;5073504;28;20059;-65
2023/05/12 05:08:43;;;;;;;52.92;27.63;;;12.10;99.90;;;;;;5073351;28;20043;-66
2023/05/12 05:11:09;;;;;;;45.40;28.00;;;12.10;99.90;;;;;;5090401;28;20064;-66
2023/05/12 05:13:34;;;;;;;50.00;26.08;;;12.10;99.90;;;;;;5090321;28;20047;-66
2023/05/12 05:16:00;;;;;;;44.17;25.17;;;12.20;99.90;;;;;;5092342;28;20036;-66
2023/05/12 05:18:26;;;;;;;50.85;26.45;;;12.30;99.90;;;;;;5100731;28;20492;-65
2023/05/12 05:20:53;;;;;;;53.35;29.33;;;12.20;99.90;;;;;;5090404;28;20051;-66
2023/05/12 05:23:18;;;;;;;57.90;32.17;;;12.30;99.90;;;;;;5107888;28;20127;-66
2023/05/12 05:25:44;;;;;;;49.22;28.73;;;12.30;99.90;;;;;;5111084;28;20455;-65
2023/05/12 05:28:10;;;;;;;46.70;27.38;;;12.40;99.90;;;;;;5105627;28;20472;-66
2023/05/12 05:30:35;;;;;;;43.63;26.08;;;12.50;99.90;;;;;;5090972;28;20550;-66
2023/05/12 05:33:01;;;;;;;51.50;30.27;;;12.50;99.90;;;;;;5090211;28;20504;-66
2023/05/12 05:35:27;;;;;;;48.63;26.48;;;12.50;99.90;;;;;;5090044;28;20044;-66
2023/05/12 05:37:53;;;;;;;43.90;25.40;;;12.50;99.90;;;;;;5090163;28;20048;-66
2023/05/12 05:40:19;;;;;;;45.42;25.52;;;12.60;99.90;;;;;;5091363;28;20493;-66
2023/05/12 05:42:45;;;;;;;47.08;26.05;;;12.60;99.90;;;;;;5090230;28;20048;-66
2023/05/12 05:45:13;;;;;;;47.58;27.10;;;12.60;99.90;;;;;;5107831;28;20074;-66
2023/05/12 05:47:39;;;;;;;43.45;24.67;;;12.70;99.90;;;;;;5093326;28;20039;-66
2023/05/12 05:50:06;;;;;;;45.75;26.08;;;12.70;99.90;;;;;;5106094;28;20066;-66
2023/05/12 05:52:31;;;;;;;43.83;25.60;;;12.80;99.90;;;;;;5073839;28;20093;-66
2023/05/12 05:54:57;;;;;;;38.17;24.67;;;12.80;99.90;;;;;;5092341;28;20036;-67
2023/05/12 05:57:23;;;;;;;33.03;21.15;;;12.80;99.90;;;;;;5073162;28;20079;-66
2023/05/12 05:59:48;;;;;;;51.25;26.85;;;12.90;99.90;;;;;;5074212;28;20046;-66
2023/05/12 06:02:15;;;;;;;49.10;28.42;;;12.90;99.90;;;;;;5073509;28;20073;-66
2023/05/12 06:04:41;;;;;;;42.53;25.55;;;13.00;99.90;;;;;;5091647;28;20082;-66
2023/05/12 06:07:06;;;;;;;38.83;25.05;;;13.00;99.90;;;;;;5090395;28;20060;-66
2023/05/12 06:09:32;;;;;;;38.40;23.45;;;13.10;99.90;;;;;;5090419;28;20043;-66
2023/05/12 06:11:57;;;;;;;35.95;24.55;;;13.10;99.90;;;;;;5100475;28;20044;-66
2023/05/12 06:14:23;;;;;;;39.83;25.65;;;13.20;99.90;;;;;;5105333;28;20047;-66
2023/05/12 06:16:49;;;;;;;40.40;24.80;;;13.20;99.90;;;;;;5112030;28;20046;-66
2023/05/12 06:19:15;;;;;;;36.45;22.85;;;13.20;99.90;;;;;;5110236;28;20039;-66
2023/05/12 06:21:41;;;;;;;38.65;22.77;;;13.10;99.90;;;;;;5110693;28;20085;-66
2023/05/12 06:24:06;;;;;;;37.72;23.15;;;13.20;99.90;;;;;;5112184;28;20427;-66
2023/05/12 06:26:32;;;;;;;35.03;23.25;;;13.20;99.90;;;;;;5109654;28;20392;-66
2023/05/12 06:28:58;;;;;;;40.17;24.23;;;13.20;99.90;;;;;;5101986;28;20335;-66
2023/05/12 06:31:23;;;;;;;39.25;26.13;;;13.20;99.90;;;;;;5090388;28;20043;-66
2023/05/12 06:33:49;;;;;;;46.65;29.70;;;13.30;99.90;;;;;;5091310;28;20509;-66
2023/05/12 06:36:15;;;;;;;41.67;25.20;;;13.30;99.90;;;;;;5091214;28;20040;-66
2023/05/12 06:38:40;;;;;;;34.40;22.50;;;13.30;99.90;;;;;;5089587;28;20081;-66
2023/05/12 06:41:06;;;;;;;44.30;25.13;;;13.40;99.90;;;;;;5104440;28;20401;-66
2023/05/12 06:43:32;;;;;;;31.65;22.45;;;13.40;99.90;;;;;;5110738;28;20047;-66
2023/05/12 06:45:57;;;;;;;36.10;24.92;;;13.40;99.90;;;;;;5102395;28;20043;-66
2023/05/12 06:48:23;;;;;;;33.50;22.65;;;13.50;99.90;;;;;;5104474;28;20044;-66
2023/05/12 06:50:49;;;;;;;35.03;22.88;;;13.40;99.90;;;;;;5109524;28;20039;-66
2023/05/12 06:53:14;;;;;;;34.05;23.10;;;13.40;99.90;;;;;;5092989;28;20054;-66
2023/05/12 06:55:42;;;;;;;37.47;23.75;;;13.50;99.90;;;;;;5091799;27;20079;-66
2023/05/12 06:58:08;;;;;;;36.75;23.85;;;13.50;99.90;;;;;;5105087;28;20054;-66
2023/05/12 07:00:33;;;;;;;34.80;24.55;;;13.50;99.90;;;;;;5110190;28;20032;-66
2023/05/12 07:02:59;;;;;;;34.20;22.27;;;13.60;99.90;;;;;;5111003;28;20910;-66
2023/05/12 07:05:25;;;;;;;32.45;22.70;;;13.70;99.90;;;;;;5110435;28;20070;-66
2023/05/12 07:07:51;;;;;;;31.80;23.08;;;13.70;99.90;;;;;;5099446;28;20042;-66
2023/05/12 07:10:17;;;;;;;36.15;23.70;;;13.80;99.90;;;;;;5105362;27;20396;-66
2023/05/12 07:12:42;;;;;;;40.03;25.67;;;13.90;99.90;;;;;;5094390;28;20486;-66
2023/05/12 07:15:09;;;;;;;33.05;22.95;;;14.00;99.90;;;;;;5092609;28;20074;-66
2023/05/12 07:17:34;;;;;;;31.58;22.40;;;14.00;99.90;;;;;;5098679;28;20043;-66
2023/05/12 07:20:00;;;;;;;34.25;24.13;;;14.10;99.90;;;;;;5110251;28;20045;-67
2023/05/12 07:22:26;;;;;;;54.88;38.90;;;14.10;99.90;;;;;;5094738;28;20044;-66
2023/05/12 07:24:52;;;;;;;56.83;38.08;;;14.20;99.90;;;;;;5073894;28;20114;-69
2023/05/12 07:27:17;;;;;;;35.55;26.02;;;14.30;99.90;;;;;;5089187;28;20067;-68
2023/05/12 07:29:43;;;;;;;32.30;23.85;;;14.40;99.90;;;;;;5092687;28;20043;-69
2023/05/12 07:32:09;;;;;;;38.80;24.83;;;14.40;99.90;;;;;;5100822;28;21190;-70
2023/05/12 07:34:34;;;;;;;33.60;24.17;;;14.50;99.90;;;;;;5097959;28;20048;-69
2023/05/12 07:37:01;;;;;;;33.08;23.88;;;14.60;99.90;;;;;;5105445;28;20047;-64
2023/05/12 07:39:28;;;;;;;32.95;23.42;;;14.70;99.90;;;;;;5109157;28;20438;-63
2023/05/12 07:41:54;;;;;;;30.65;23.27;;;14.80;99.90;;;;;;5101873;28;20066;-65
2023/05/12 07:44:20;;;;;;;33.10;24.85;;;14.80;99.90;;;;;;5083210;28;20056;-64
2023/05/12 07:46:45;;;;;;;33.17;23.15;;;14.90;99.90;;;;;;5091884;28;20050;-64
2023/05/12 07:49:11;;;;;;;29.98;22.35;;;15.00;99.90;;;;;;5110837;28;20118;-66
2023/05/12 07:51:38;;;;;;;30.58;21.85;;;15.00;99.90;;;;;;5106387;28;20403;-66
2023/05/12 07:54:05;;;;;;;31.75;23.50;;;15.10;99.90;;;;;;5106963;28;20039;-67
2023/05/12 07:56:33;;;;;;;32.03;23.23;;;15.10;99.90;;;;;;5099442;28;20090;-66
2023/05/12 07:58:59;;;;;;;31.70;22.25;;;15.20;99.90;;;;;;5092360;28;20435;-67
2023/05/12 08:01:25;;;;;;;31.45;23.40;;;15.20;99.90;;;;;;5091920;28;20086;-65
2023/05/12 08:03:51;;;;;;;29.42;23.55;;;15.30;99.90;;;;;;5092799;28;20068;-66
2023/05/12 08:06:17;;;;;;;32.10;24.48;;;15.40;99.90;;;;;;5105545;28;20043;-66
2023/05/12 08:08:43;;;;;;;32.17;23.55;;;15.40;99.90;;;;;;5110807;28;20036;-70
2023/05/12 08:11:09;;;;;;;31.48;25.20;;;15.40;99.90;;;;;;5104005;28;20051;-69
2023/05/12 08:13:38;;;;;;;33.08;25.17;;;15.60;99.90;;;;;;5105440;28;20044;-70
2023/05/12 08:16:04;;;;;;;30.92;24.02;;;15.60;99.90;;;;;;5110704;28;20052;-70
2023/05/12 08:18:30;;;;;;;32.55;24.42;;;15.70;99.90;;;;;;5103083;28;20603;-70
2023/05/12 08:20:55;;;;;;;29.80;24.42;;;15.80;99.90;;;;;;5113000;28;20118;-70
2023/05/12 08:23:21;;;;;;;35.35;27.42;;;15.90;99.90;;;;;;5103964;28;20031;-68
2023/05/12 08:25:47;;;;;;;33.92;27.02;;;16.00;99.90;;;;;;5099617;28;20035;-69
2023/05/12 08:28:13;;;;;;;31.60;25.23;;;16.10;99.90;;;;;;5095719;28;20036;-70
2023/05/12 08:30:40;;;;;;;32.65;26.88;;;16.20;99.90;;;;;;5106681;28;20116;-69
2023/05/12 08:33:06;;;;;;;29.52;24.58;;;16.40;99.90;;;;;;5098996;28;20064;-70
2023/05/12 08:35:32;;;;;;;29.27;23.60;;;16.60;99.90;;;;;;5100668;28;20555;-68
2023/05/12 08:37:58;;;;;;;30.80;22.85;;;16.70;99.90;;;;;;5108415;28;20122;-68
2023/05/12 08:40:25;;;;;;;27.48;23.60;;;16.90;99.90;;;;;;5106310;28;20111;-73
2023/05/12 08:43:23;;;;;;;26.88;23.17;;;16.90;99.90;;;;;;5092280;28;20117;-72
2023/05/12 08:45:49;;;;;;;27.98;23.85;;;17.00;99.90;;;;;;5104400;28;20438;-69
2023/05/12 08:48:18;;;;;;;28.95;22.63;;;17.00;99.90;;;;;;5112350;28;20492;-67
2023/05/12 08:50:46;;;;;;;25.45;22.33;;;17.00;99.90;;;;;;5093760;28;20040;-67
2023/05/12 08:53:15;;;;;;;30.45;25.67;;;17.00;99.90;;;;;;5111635;28;20512;-67
2023/05/12 08:55:41;;;;;;;29.67;23.75;;;17.10;99.90;;;;;;5112245;28;20047;-67
2023/05/12 08:58:07;;;;;;;28.02;24.08;;;17.20;99.90;;;;;;5111248;28;20549;-68
2023/05/12 09:00:35;;;;;;;32.63;26.63;;;17.30;99.90;;;;;;5110353;28;20091;-68
2023/05/12 09:03:03;;;;;;;30.80;24.05;;;17.40;99.90;;;;;;5112360;28;20083;-66
2023/05/12 09:05:29;;;;;;;32.15;26.67;;;17.40;99.90;;;;;;5111749;28;20038;-67
2023/05/12 09:07:56;;;;;;;29.75;25.58;;;17.40;99.90;;;;;;5110630;28;20040;-67
2023/05/12 09:10:25;;;;;;;28.58;24.95;;;17.40;99.90;;;;;;5110459;28;20051;-68
2023/05/12 09:12:54;;;;;;;29.95;25.42;;;17.40;99.90;;;;;;5111222;28;20050;-67
2023/05/12 09:15:30;;;;;;;26.98;23.13;;;17.50;99.90;;;;;;5111263;28;20063;-67
2023/05/12 09:17:56;;;;;;;28.98;25.75;;;17.50;99.90;;;;;;5111014;28;20118;-67
2023/05/12 09:20:25;;;;;;;29.58;24.10;;;17.50;99.90;;;;;;5110803;28;20083;-66
2023/05/12 09:22:50;;;;;;;25.33;22.30;;;17.60;99.90;;;;;;5110311;28;20040;-66
2023/05/12 09:25:20;;;;;;;27.85;22.75;;;17.70;99.90;;;;;;5114343;28;20118;-67
2023/05/12 09:27:48;;;;;;;27.23;23.25;;;17.80;99.90;;;;;;5115355;28;20035;-67
2023/05/12 09:30:14;;;;;;;25.80;23.02;;;17.90;99.90;;;;;;5114357;28;20092;-67
2023/05/12 09:32:40;;;;;;;26.45;23.65;;;17.90;99.90;;;;;;5114763;28;20054;-66
2023/05/12 09:35:11;;;;;;;23.38;20.33;;;18.10;99.90;;;;;;5114362;28;20047;-69
2023/05/12 09:37:37;;;;;;;21.60;19.27;;;18.20;99.90;;;;;;5114574;28;20088;-69
2023/05/12 09:40:06;;;;;;;22.38;19.73;;;18.40;99.90;;;;;;5097487;28;20214;-69
2023/05/12 09:42:34;;;;;;;19.52;17.38;;;18.50;99.90;;;;;;5114579;28;20139;-71
2023/05/12 09:45:04;;;;;;;18.95;15.95;;;18.60;99.90;;;;;;5116243;28;20103;-71
2023/05/12 09:47:35;;;;;;;16.33;14.63;;;18.70;99.90;;;;;;5113931;28;20422;-70
2023/05/12 09:50:02;;;;;;;16.25;13.93;;;18.90;99.90;;;;;;5115392;28;20040;-64
2023/05/12 09:52:29;;;;;;;27.95;16.38;;;18.90;99.90;;;;;;5113663;28;20051;-64
2023/05/12 09:54:55;;;;;;;17.45;15.20;;;19.00;99.90;;;;;;5114276;28;20039;-64
2023/05/12 09:57:22;;;;;;;18.15;16.05;;;19.10;99.90;;;;;;5113217;28;20038;-64
2023/05/12 09:59:48;;;;;;;18.65;14.70;;;19.10;99.90;;;;;;5113513;28;20050;-65
2023/05/12 10:02:15;;;;;;;17.67;13.85;;;19.10;99.90;;;;;;5110608;28;20473;-65
2023/05/12 10:04:55;;;;;;;15.68;13.98;;;19.10;99.90;;;;;;5082367;28;20458;-65
2023/05/12 10:07:25;;;;;;;17.30;14.75;;;19.20;99.90;;;;;;5100860;28;20036;-65
2023/05/12 10:09:53;;;;;;;15.55;13.93;;;19.20;99.90;;;;;;5094647;28;20044;-65
2023/05/12 10:12:19;;;;;;;18.90;13.77;;;19.30;99.90;;;;;;5093595;28;20039;-65
2023/05/12 10:14:46;;;;;;;15.95;13.63;;;19.30;99.90;;;;;;5109719;28;20165;-65
2023/05/12 10:17:13;;;;;;;14.38;12.80;;;19.30;99.90;;;;;;5104357;28;20445;-65
2023/05/12 10:19:40;;;;;;;14.98;12.77;;;19.40;99.90;;;;;;5109306;27;20050;-64
2023/05/12 10:22:09;;;;;;;17.90;14.55;;;19.40;99.90;;;;;;5104350;27;20032;-64
2023/05/12 10:24:36;;;;;;;17.00;14.57;;;19.50;99.90;;;;;;5091776;28;20032;-64
2023/05/12 10:27:04;;;;;;;18.73;14.77;;;19.50;99.90;;;;;;5082666;28;20114;-64
2023/05/12 10:29:31;;;;;;;18.48;14.65;;;19.60;99.90;;;;;;5110510;28;20114;-64
2023/05/12 10:32:00;;;;;;;16.23;14.50;;;19.60;99.90;;;;;;5110475;28;20485;-63
2023/05/12 10:34:32;;;;;;;17.80;14.18;;;19.60;99.90;;;;;;5111796;28;20075;-63
2023/05/12 10:36:57;;;;;;;18.50;16.63;;;19.70;99.90;;;;;;5112669;28;20085;-63
2023/05/12 10:39:31;;;;;;;18.27;16.33;;;19.70;99.90;;;;;;5098135;28;20072;-63
2023/05/12 10:42:07;;;;;;;18.17;16.10;;;19.80;99.90;;;;;;5090508;28;20070;-64
2023/05/12 10:44:35;;;;;;;17.80;14.77;;;19.90;99.90;;;;;;5090164;28;20290;-63
2023/05/12 10:47:01;;;;;;;18.98;14.85;;;19.90;99.90;;;;;;5084306;28;20043;-63
2023/05/12 10:49:59;;;;;;;16.20;14.40;;;20.00;99.90;;;;;;5098985;28;20066;-63
2023/05/12 10:52:24;;;;;;;16.83;13.15;;;20.00;99.90;;;;;;5090411;28;20059;-62
2023/05/12 10:54:59;;;;;;;19.98;14.45;;;20.00;99.90;;;;;;5084607;28;20074;-63
2023/05/12 10:57:25;;;;;;;16.20;13.80;;;20.00;99.90;;;;;;5090640;28;20051;-62
2023/05/12 10:59:58;;;;;;;15.73;14.05;;;20.10;99.90;;;;;;5094799;28;20043;-62
2023/05/12 11:02:31;;;;;;;16.85;12.73;;;20.20;99.90;;;;;;5105040;28;20047;-63
2023/05/12 11:04:59;;;;;;;14.13;12.65;;;20.30;99.90;;;;;;5108823;28;20043;-63
2023/05/12 11:07:30;;;;;;;14.90;11.73;;;20.30;99.90;;;;;;5109068;28;20451;-64
2023/05/12 11:09:58;;;;;;;16.85;13.70;;;20.40;99.90;;;;;;5100609;28;20044;-65
2023/05/12 11:12:28;;;;;;;14.02;12.50;;;20.40;99.90;;;;;;5094621;28;20399;-65
2023/05/12 11:14:53;;;;;;;14.32;11.77;;;20.30;99.90;;;;;;5077381;28;20043;-70
2023/05/12 11:17:19;;;;;;;12.88;11.13;;;20.30;99.90;;;;;;5099251;28;20496;-69
2023/05/12 11:19:47;;;;;;;12.18;10.57;;;20.40;99.90;;;;;;5093577;28;20048;-69
2023/05/12 11:22:15;;;;;;;12.70;11.23;;;20.50;99.90;;;;;;5074779;28;20113;-70
2023/05/12 11:24:41;;;;;;;15.40;12.77;;;20.60;99.90;;;;;;5093241;28;20485;-64
2023/05/12 11:27:12;;;;;;;13.65;12.25;;;20.80;99.90;;;;;;5092827;28;20038;-64
2023/05/12 11:29:41;;;;;;;12.68;11.38;;;20.80;99.90;;;;;;5103188;27;20032;-67
2023/05/12 11:32:11;;;;;;;14.43;11.95;;;20.80;99.90;;;;;;5098903;28;20040;-63
2023/05/12 11:34:37;;;;;;;14.75;12.02;;;20.90;99.90;;;;;;5108990;28;20118;-63
2023/05/12 11:37:05;;;;;;;13.13;11.82;;;20.90;99.90;;;;;;5112571;28;20130;-63
2023/05/12 11:39:31;;;;;;;15.57;12.18;;;20.90;99.90;;;;;;5111475;28;20086;-66
2023/05/12 11:42:05;;;;;;;15.10;11.70;;;20.90;99.90;;;;;;5112968;28;20095;-65
2023/05/12 11:44:31;;;;;;;14.45;12.55;;;20.90;99.90;;;;;;5111832;28;20046;-62
2023/05/12 11:47:05;;;;;;;16.20;11.05;;;21.00;99.90;;;;;;5112620;28;20043;-63
2023/05/12 11:49:31;;;;;;;;;;;21.00;99.90;;;;;;5111447;28;20561;-64
2023/05/12 11:51:59;;;;;;;15.63;12.18;;;20.80;99.90;;;;;;5111924;28;20006;-65
2023/05/12 11:54:27;;;;;;;13.77;11.98;;;20.70;99.90;;;;;;5111867;28;20084;-64
2023/05/12 11:56:54;;;;;;;18.58;12.13;;;20.50;99.90;;;;;;5111805;28;20051;-64
2023/05/12 11:59:26;;;;;;;15.27;13.77;;;20.60;99.90;;;;;;5111416;28;20046;-64
2023/05/12 12:01:52;;;;;;;13.75;12.27;;;20.80;99.90;;;;;;5113237;28;20039;-64
2023/05/12 12:04:18;;;;;;;13.40;12.00;;;20.90;99.90;;;;;;5112333;28;20043;-62
2023/05/12 12:06:45;;;;;;;15.75;12.65;;;21.00;99.90;;;;;;5112709;28;20411;-62
2023/05/12 12:09:11;;;;;;;16.70;13.85;;;21.10;99.90;;;;;;5111725;28;20039;-62
2023/05/12 12:11:37;;;;;;;15.52;13.98;;;21.30;99.90;;;;;;5111361;28;20112;-63
2023/05/12 12:14:02;;;;;;;15.15;12.65;;;21.30;99.90;;;;;;5111901;28;20039;-63
2023/05/12 12:16:30;;;;;;;14.95;13.38;;;21.40;99.90;;;;;;5112575;28;20047;-62
2023/05/12 12:18:56;;;;;;;17.58;13.57;;;21.40;99.90;;;;;;5111101;28;20040;-63
2023/05/12 12:21:23;;;;;;;16.05;14.32;;;21.40;99.90;;;;;;5110943;28;20036;-63
2023/05/12 12:23:49;;;;;;;16.77;13.38;;;21.30;99.90;;;;;;5113079;28;20490;-63
2023/05/12 12:26:15;;;;;;;17.45;14.07;;;21.20;99.90;;;;;;5111109;28;20088;-63
2023/05/12 12:28:45;;;;;;;14.55;12.10;;;21.30;99.90;;;;;;5112482;28;20114;-63
2023/05/12 12:31:11;;;;;;;16.98;13.70;;;21.20;99.90;;;;;;5111911;28;20076;-64
2023/05/12 12:33:37;;;;;;;15.82;12.88;;;21.20;99.90;;;;;;5112665;28;20039;-64
2023/05/12 12:36:03;;;;;;;16.15;12.73;;;21.30;99.90;;;;;;5111454;28;20055;-64
2023/05/12 12:38:29;;;;;;;15.55;13.50;;;21.40;99.90;;;;;;5111698;28;20039;-64
2023/05/12 12:40:55;;;;;;;13.07;11.68;;;21.50;99.90;;;;;;5111201;28;20059;-64
2023/05/12 12:43:21;;;;;;;17.17;13.43;;;21.60;99.90;;;;;;5112239;28;20407;-64
2023/05/12 12:45:48;;;;;;;16.42;13.35;;;21.50;99.90;;;;;;5112034;28;20039;-64